Time;durP1;ratioP1;P1;durP2;ratioP2;P2;SDS_P1;SDS_P2;PMS_P1;PMS_P2;Temp;Humidity;BMP_temperature;BMP_pressure;BME280_temperature;BME280_humidity;BME280_pressure;Samples;Min_cycle;Max_cycle;Signal;HPM_P1;HPM_P2
2023/06/09 00:01:22;;;;;;;4.43;4.03;;;16.70;99.90;;;;;;4938230;29;20631;-72
2023/06/09 00:03:50;;;;;;;7.33;4.83;;;16.70;99.90;;;;;;4938811;29;20204;-74
2023/06/09 00:06:22;;;;;;;6.83;6.13;;;16.70;99.90;;;;;;4938402;29;20770;-74
2023/06/09 00:08:49;;;;;;;6.70;6.10;;;16.70;99.90;;;;;;4938129;29;20512;-72
2023/06/09 00:11:15;;;;;;;5.60;5.20;;;16.70;99.90;;;;;;4960670;28;20472;-73
2023/06/09 00:13:41;;;;;;;6.00;5.50;;;16.70;99.90;;;;;;4976757;28;20938;-73
2023/06/09 00:16:06;;;;;;;5.80;5.30;;;16.70;99.90;;;;;;4967659;28;20412;-72
2023/06/09 00:18:34;;;;;;;5.00;4.60;;;16.70;99.90;;;;;;4952513;29;20469;-72
2023/06/09 00:21:00;;;;;;;5.07;4.57;;;16.70;99.90;;;;;;4946667;28;20213;-72
2023/06/09 00:23:28;;;;;;;4.00;3.70;;;16.70;99.90;;;;;;4957603;28;20903;-73
2023/06/09 00:25:54;;;;;;;3.90;3.60;;;16.60;99.90;;;;;;4957439;29;20413;-73
2023/06/09 00:28:20;;;;;;;4.07;3.70;;;16.60;99.90;;;;;;4959579;28;20433;-73
2023/06/09 00:30:46;;;;;;;3.90;3.60;;;16.50;99.90;;;;;;4976130;28;20439;-73
2023/06/09 00:33:12;;;;;;;3.13;2.83;;;16.50;99.90;;;;;;4970287;28;20461;-72
2023/06/09 00:35:37;;;;;;;3.13;2.90;;;16.50;99.90;;;;;;4940847;28;20424;-72
2023/06/09 00:38:03;;;;;;;4.00;3.70;;;16.50;99.90;;;;;;4969238;28;20204;-73
2023/06/09 00:40:29;;;;;;;5.63;5.13;;;16.40;99.90;;;;;;4958829;28;20201;-73
2023/06/09 00:42:55;;;;;;;6.90;6.20;;;16.50;99.90;;;;;;4971008;28;20424;-72
2023/06/09 00:45:21;;;;;;;11.60;10.60;;;16.50;99.90;;;;;;4940000;29;20185;-73
2023/06/09 00:47:46;;;;;;;11.70;10.70;;;16.50;99.90;;;;;;4939978;29;20452;-74
2023/06/09 00:50:15;;;;;;;10.03;9.03;;;16.50;99.90;;;;;;4938990;29;20225;-72
2023/06/09 00:52:41;;;;;;;11.53;10.43;;;16.60;99.90;;;;;;4958395;28;20216;-73
2023/06/09 00:55:09;;;;;;;11.93;10.93;;;16.60;99.90;;;;;;4979837;28;20439;-73
2023/06/09 00:57:36;;;;;;;10.47;9.47;;;16.60;99.90;;;;;;4978354;28;20576;-72
2023/06/09 01:00:06;;;;;;;8.83;7.93;;;16.70;99.90;;;;;;4960699;28;20768;-72
2023/06/09 01:02:31;;;;;;;7.90;7.20;;;16.70;99.90;;;;;;4960841;29;20408;-72
2023/06/09 01:04:57;;;;;;;9.97;8.97;;;16.60;99.90;;;;;;4939297;28;20883;-72
2023/06/09 01:07:30;;;;;;;9.33;8.43;;;16.60;99.90;;;;;;4974407;28;20204;-72
2023/06/09 01:10:04;;;;;;;9.00;8.20;;;16.60;99.90;;;;;;4946636;28;20209;-73
2023/06/09 01:12:39;;;;;;;9.30;8.40;;;16.60;99.90;;;;;;4979295;28;20510;-73
2023/06/09 01:15:08;;;;;;;7.50;6.80;;;16.60;99.90;;;;;;4954967;29;20412;-72
2023/06/09 01:17:36;;;;;;;8.77;8.03;;;16.60;99.90;;;;;;4955282;28;20421;-73
2023/06/09 01:20:05;;;;;;;8.73;7.93;;;16.50;99.90;;;;;;4940224;29;21664;-74
2023/06/09 01:22:58;;;;;;;9.43;8.53;;;16.50;99.90;;;;;;4940885;29;20484;-72
2023/06/09 01:25:35;;;;;;;8.10;7.40;;;16.40;99.90;;;;;;4941084;28;20449;-72
2023/06/09 01:28:07;;;;;;;9.90;9.00;;;16.40;99.90;;;;;;4942477;29;20499;-72
2023/06/09 01:30:34;;;;;;;9.30;8.50;;;16.40;99.90;;;;;;4958131;28;20540;-73
2023/06/09 01:33:04;;;;;;;8.60;7.80;;;16.40;99.90;;;;;;4974282;28;20448;-72
2023/06/09 01:35:30;;;;;;;8.53;7.80;;;16.30;99.90;;;;;;4959789;29;20416;-72
2023/06/09 01:37:57;;;;;;;10.83;8.80;;;16.30;99.90;;;;;;4968683;28;20411;-73
2023/06/09 01:40:23;;;;;;;11.10;10.20;;;16.20;99.90;;;;;;4961579;28;20530;-73
2023/06/09 01:42:49;;;;;;;11.47;10.37;;;16.30;99.90;;;;;;4944429;29;20580;-73
2023/06/09 01:45:15;;;;;;;10.70;9.70;;;16.20;99.90;;;;;;4953370;29;20497;-73
2023/06/09 01:47:41;;;;;;;9.87;8.87;;;16.10;99.90;;;;;;4942767;28;20425;-72
2023/06/09 01:50:22;;;;;;;8.57;7.77;;;16.10;99.90;;;;;;4957505;28;20248;-73
2023/06/09 01:53:01;;;;;;;11.10;10.10;;;16.10;99.90;;;;;;4942733;29;20464;-73
2023/06/09 01:55:36;;;;;;;11.00;10.00;;;16.00;99.90;;;;;;4965163;28;20890;-72
2023/06/09 01:58:14;;;;;;;12.20;11.10;;;15.90;99.90;;;;;;4942440;29;20901;-73
2023/06/09 02:00:44;;;;;;;13.40;9.73;;;15.90;99.90;;;;;;4939062;29;20473;-73
2023/06/09 02:03:14;;;;;;;9.50;8.60;;;15.90;99.90;;;;;;4940674;29;20512;-73
2023/06/09 02:05:42;;;;;;;8.93;8.13;;;15.80;99.90;;;;;;4940328;28;20479;-73
2023/06/09 02:08:09;;;;;;;8.00;7.40;;;15.80;99.90;;;;;;4938925;29;20533;-72
2023/06/09 02:10:36;;;;;;;12.00;10.90;;;15.80;99.90;;;;;;4957884;28;20450;-72
2023/06/09 02:13:20;;;;;;;12.47;11.27;;;15.70;99.90;;;;;;4959373;29;20536;-72
2023/06/09 02:15:46;;;;;;;9.77;8.77;;;15.80;99.90;;;;;;4941688;29;20487;-73
2023/06/09 02:18:15;;;;;;;10.00;9.10;;;15.70;99.90;;;;;;4955036;28;20708;-73
2023/06/09 02:20:44;;;;;;;10.10;9.10;;;15.70;99.90;;;;;;4953004;28;20430;-74
2023/06/09 02:23:12;;;;;;;10.53;9.53;;;15.60;99.90;;;;;;4940492;29;20445;-72
2023/06/09 02:25:37;;;;;;;10.00;9.17;;;15.70;99.90;;;;;;4956237;28;20420;-71
2023/06/09 02:28:05;;;;;;;8.47;7.63;;;15.60;99.90;;;;;;4940115;28;20181;-72
2023/06/09 02:30:31;;;;;;;9.53;8.63;;;15.60;99.90;;;;;;4940621;29;20267;-73
2023/06/09 02:32:58;;;;;;;10.30;9.30;;;15.60;99.90;;;;;;4952868;28;20565;-74
2023/06/09 02:35:24;;;;;;;8.53;7.73;;;15.60;99.90;;;;;;4940550;29;20724;-72
2023/06/09 02:37:52;;;;;;;8.53;7.73;;;15.50;99.90;;;;;;4944957;28;20714;-72
2023/06/09 02:40:19;;;;;;;8.60;7.77;;;15.50;99.90;;;;;;4941059;29;20483;-72
2023/06/09 02:42:45;;;;;;;8.20;7.47;;;15.50;99.90;;;;;;4941216;29;20421;-73
2023/06/09 02:45:12;;;;;;;7.00;6.40;;;15.50;99.90;;;;;;4974664;28;20427;-72
2023/06/09 02:47:38;;;;;;;6.87;6.17;;;15.40;99.90;;;;;;4933201;29;20189;-72
2023/06/09 02:50:05;;;;;;;6.07;5.57;;;15.40;99.90;;;;;;4939254;29;20555;-74
2023/06/09 02:52:32;;;;;;;6.87;6.13;;;15.40;99.90;;;;;;4933285;29;20880;-73
2023/06/09 02:54:58;;;;;;;6.90;6.30;;;15.30;99.90;;;;;;4937914;29;20430;-73
2023/06/09 02:57:27;;;;;;;6.80;6.20;;;15.30;99.90;;;;;;4946119;28;20967;-73
2023/06/09 02:59:53;;;;;;;7.30;6.70;;;15.30;99.90;;;;;;4954106;28;20439;-72
2023/06/09 03:02:20;;;;;;;8.50;7.80;;;15.30;99.90;;;;;;4953400;29;20426;-72
2023/06/09 03:04:46;;;;;;;9.17;8.30;;;15.30;99.90;;;;;;4935294;29;20444;-72
2023/06/09 03:07:16;;;;;;;8.27;7.23;;;15.30;99.90;;;;;;4953656;28;20414;-72
2023/06/09 03:09:43;;;;;;;6.93;6.23;;;15.30;99.90;;;;;;4939044;28;20453;-72
2023/06/09 03:12:10;;;;;;;6.47;5.90;;;15.30;99.90;;;;;;4953568;29;20476;-72
2023/06/09 03:14:37;;;;;;;7.80;7.07;;;15.30;99.90;;;;;;4951991;29;20669;-72
2023/06/09 03:17:06;;;;;;;8.30;7.03;;;15.30;99.90;;;;;;4935660;29;20940;-73
2023/06/09 03:19:34;;;;;;;7.83;7.20;;;15.40;99.90;;;;;;4930001;29;20433;-73
2023/06/09 03:22:03;;;;;;;9.10;8.30;;;15.40;99.90;;;;;;4938187;29;20677;-73
2023/06/09 03:24:30;;;;;;;8.27;7.57;;;15.40;99.90;;;;;;4923258;29;20477;-72
2023/06/09 03:26:56;;;;;;;10.50;9.60;;;15.40;99.90;;;;;;4903464;29;20426;-73
2023/06/09 03:29:23;;;;;;;10.50;9.57;;;15.50;99.90;;;;;;4927726;29;20897;-73
2023/06/09 03:31:49;;;;;;;10.70;9.70;;;15.50;99.90;;;;;;4938318;29;20461;-75
2023/06/09 03:34:14;;;;;;;11.07;10.07;;;15.50;99.90;;;;;;4937188;29;20201;-72
2023/06/09 03:36:41;;;;;;;12.23;11.03;;;15.50;99.90;;;;;;4936565;29;20261;-72
2023/06/09 03:39:07;;;;;;;9.63;8.83;;;15.60;99.90;;;;;;4923671;29;20202;-72
2023/06/09 03:41:33;;;;;;;9.57;8.57;;;15.60;99.90;;;;;;4949217;29;20418;-72
2023/06/09 03:43:59;;;;;;;9.43;8.57;;;15.60;99.90;;;;;;4918366;29;20455;-73
2023/06/09 03:46:25;;;;;;;8.23;7.43;;;15.60;99.90;;;;;;4932877;29;20446;-73
2023/06/09 03:48:52;;;;;;;8.97;8.17;;;15.50;99.90;;;;;;4936055;29;20267;-72
2023/06/09 03:51:20;;;;;;;8.00;7.20;;;15.50;99.90;;;;;;4936671;29;20508;-73
2023/06/09 03:53:46;;;;;;;11.60;10.50;;;15.60;99.90;;;;;;4953448;29;20469;-73
2023/06/09 03:56:12;;;;;;;9.73;8.80;;;15.60;99.90;;;;;;4936731;29;20481;-73
2023/06/09 03:58:38;;;;;;;10.83;9.93;;;15.60;99.90;;;;;;4938352;29;20406;-72
2023/06/09 04:01:04;;;;;;;9.50;8.60;;;15.60;99.90;;;;;;4940143;29;20416;-73
2023/06/09 04:03:31;;;;;;;8.80;8.00;;;15.60;99.90;;;;;;4935122;29;20423;-74
2023/06/09 04:05:56;;;;;;;12.63;11.60;;;15.80;99.90;;;;;;4919556;29;20427;-73
2023/06/09 04:08:22;;;;;;;12.67;11.50;;;15.80;99.90;;;;;;4936954;29;20596;-72
2023/06/09 04:10:47;;;;;;;9.60;8.70;;;15.80;99.90;;;;;;4937753;29;20225;-72
2023/06/09 04:13:13;;;;;;;9.67;8.67;;;15.80;99.90;;;;;;4924386;29;20214;-72
2023/06/09 04:15:39;;;;;;;10.00;9.00;;;15.90;99.90;;;;;;4905870;29;20189;-72
2023/06/09 04:18:06;;;;;;;11.20;10.20;;;16.00;99.90;;;;;;4923712;29;20457;-72
2023/06/09 04:20:34;;;;;;;12.00;10.90;;;16.00;99.90;;;;;;4920213;29;20426;-72
2023/06/09 04:23:00;;;;;;;9.37;8.57;;;16.00;99.90;;;;;;4918999;29;20912;-72
2023/06/09 04:25:33;;;;;;;11.80;10.63;;;16.10;99.90;;;;;;4902259;29;20522;-73
2023/06/09 04:28:04;;;;;;;9.57;8.77;;;16.10;99.90;;;;;;4915321;29;20406;-74
2023/06/09 04:30:30;;;;;;;11.80;9.43;;;16.10;99.90;;;;;;4913575;29;20473;-72
2023/06/09 04:33:04;;;;;;;9.20;8.40;;;16.20;99.90;;;;;;4921874;29;20495;-72
2023/06/09 04:35:30;;;;;;;10.63;9.63;;;16.20;99.90;;;;;;4941841;29;20500;-73
2023/06/09 04:38:00;;;;;;;10.37;9.40;;;16.30;99.90;;;;;;4915204;29;20453;-73
2023/06/09 04:40:28;;;;;;;9.23;8.43;;;16.40;99.90;;;;;;4929140;29;20496;-73
2023/06/09 04:42:58;;;;;;;12.20;10.10;;;16.50;99.90;;;;;;4925769;29;20717;-73
2023/06/09 04:45:33;;;;;;;8.67;7.73;;;16.60;99.90;;;;;;4924559;29;20472;-73
2023/06/09 04:48:02;;;;;;;8.03;7.33;;;17.00;99.90;;;;;;4939777;29;20532;-74
2023/06/09 04:50:33;;;;;;;8.40;7.70;;;17.60;99.90;;;;;;4923063;29;20828;-73
2023/06/09 04:53:03;;;;;;;8.10;7.30;;;18.30;99.90;;;;;;4924413;29;20510;-76
2023/06/09 04:55:30;;;;;;;7.93;7.13;;;18.90;99.90;;;;;;4924077;29;20446;-72
2023/06/09 04:57:57;;;;;;;6.87;6.27;;;19.50;99.90;;;;;;4941173;29;20709;-72
2023/06/09 05:00:26;;;;;;;6.40;5.80;;;20.10;99.90;;;;;;4922425;29;20516;-72
2023/06/09 05:02:54;;;;;;;8.50;7.80;;;20.40;99.90;;;;;;4909687;29;20520;-74
2023/06/09 05:05:20;;;;;;;7.47;6.87;;;20.80;99.90;;;;;;4913919;29;20443;-73
2023/06/09 05:07:46;;;;;;;7.30;6.60;;;21.10;99.10;;;;;;4916877;29;20446;-73
2023/06/09 05:10:12;;;;;;;6.53;6.03;;;21.40;97.00;;;;;;4949789;29;20433;-75
2023/06/09 05:12:39;;;;;;;6.23;5.67;;;21.70;94.20;;;;;;4959244;29;20221;-73
2023/06/09 05:15:06;;;;;;;6.90;6.30;;;22.00;91.70;;;;;;4944220;29;20849;-74
2023/06/09 05:17:34;;;;;;;8.40;7.70;;;22.20;87.80;;;;;;4930675;29;20760;-73
2023/06/09 05:20:05;;;;;;;7.90;7.10;;;22.50;83.50;;;;;;4936776;29;20446;-72
2023/06/09 05:22:33;;;;;;;6.87;6.27;;;22.70;80.30;;;;;;4945840;29;20424;-76
2023/06/09 05:24:58;;;;;;;7.80;7.13;;;23.00;77.60;;;;;;4962091;29;20429;-74
2023/06/09 05:27:24;;;;;;;7.30;6.60;;;23.20;73.40;;;;;;4946377;29;20181;-73
2023/06/09 05:29:50;;;;;;;7.67;6.97;;;23.40;71.10;;;;;;4944228;29;20296;-73
2023/06/09 05:32:17;;;;;;;6.40;5.90;;;23.70;68.70;;;;;;4930767;29;20467;-74
2023/06/09 05:34:44;;;;;;;7.30;6.20;;;23.90;65.90;;;;;;4933376;29;20485;-76
2023/06/09 05:37:13;;;;;;;7.07;6.47;;;24.10;63.50;;;;;;4942458;29;20273;-73
2023/06/09 05:39:40;;;;;;;6.53;5.87;;;24.20;61.60;;;;;;4949856;28;20446;-74
2023/06/09 05:42:07;;;;;;;6.37;5.77;;;24.30;60.20;;;;;;4946960;29;20811;-74
2023/06/09 05:44:32;;;;;;;6.77;6.17;;;24.20;59.60;;;;;;4959006;29;20438;-76
2023/06/09 05:46:59;;;;;;;5.27;4.77;;;24.30;59.50;;;;;;4928223;29;20433;-75
2023/06/09 05:49:25;;;;;;;5.80;5.07;;;24.40;58.80;;;;;;4938934;29;20273;-74
2023/06/09 05:51:50;;;;;;;6.40;5.80;;;24.60;58.80;;;;;;4939991;29;20426;-72
2023/06/09 05:54:17;;;;;;;8.13;6.67;;;24.70;58.30;;;;;;4928455;29;20182;-76
2023/06/09 05:56:44;;;;;;;6.00;5.50;;;24.80;58.10;;;;;;4927975;29;20170;-73
2023/06/09 05:59:13;;;;;;;7.10;6.40;;;24.90;58.00;;;;;;4927696;29;20455;-75
2023/06/09 06:01:39;;;;;;;9.40;7.47;;;25.10;57.40;;;;;;4936598;29;20451;-73
2023/06/09 06:04:05;;;;;;;7.03;6.43;;;25.20;56.50;;;;;;4926489;29;20921;-76
2023/06/09 06:06:31;;;;;;;6.53;6.03;;;25.40;56.10;;;;;;4943045;29;20587;-77
2023/06/09 06:08:57;;;;;;;7.00;6.30;;;25.60;55.40;;;;;;4944650;29;20207;-73
2023/06/09 06:11:23;;;;;;;6.20;5.60;;;25.70;54.80;;;;;;4936706;29;20225;-74
2023/06/09 06:13:48;;;;;;;6.80;6.20;;;25.80;54.20;;;;;;4946172;29;20615;-73
2023/06/09 06:16:14;;;;;;;6.73;5.80;;;25.80;53.70;;;;;;4949604;29;20589;-76
2023/06/09 06:18:40;;;;;;;6.87;6.17;;;25.70;53.50;;;;;;4952240;29;20585;-74
2023/06/09 06:21:05;;;;;;;8.13;6.00;;;25.70;53.50;;;;;;4958844;29;20270;-76
2023/06/09 06:23:32;;;;;;;6.10;5.60;;;25.80;53.30;;;;;;4937510;28;20220;-76
2023/06/09 06:25:58;;;;;;;6.67;6.07;;;25.90;52.90;;;;;;4968670;29;20189;-76
2023/06/09 06:28:23;;;;;;;6.77;5.50;;;25.90;52.70;;;;;;4941269;29;20480;-73
2023/06/09 06:30:50;;;;;;;6.63;6.13;;;26.00;52.50;;;;;;4945634;29;20281;-75
2023/06/09 06:33:15;;;;;;;5.67;5.07;;;26.10;52.20;;;;;;4930936;29;20229;-76
2023/06/09 06:35:41;;;;;;;5.87;5.27;;;26.10;51.90;;;;;;4968260;29;20405;-75
2023/06/09 06:38:08;;;;;;;5.70;5.20;;;26.20;51.80;;;;;;4967720;29;20177;-76
2023/06/09 06:40:33;;;;;;;6.50;6.00;;;26.30;51.40;;;;;;4960248;29;20244;-76
2023/06/09 06:42:59;;;;;;;5.40;5.00;;;26.40;50.60;;;;;;4949819;29;20829;-77
2023/06/09 06:45:43;;;;;;;5.10;4.70;;;26.30;50.50;;;;;;4949993;29;20252;-76
2023/06/09 06:48:09;;;;;;;7.10;6.60;;;26.30;50.50;;;;;;4963526;29;20437;-75
2023/06/09 06:50:37;;;;;;;6.57;6.00;;;26.00;49.60;;;;;;4964696;28;20488;-78
2023/06/09 06:53:03;;;;;;;5.53;5.03;;;25.60;50.70;;;;;;4949273;29;20256;-76
2023/06/09 06:55:30;;;;;;;6.10;5.50;;;25.60;51.40;;;;;;4949984;29;20424;-76
2023/06/09 06:57:56;;;;;;;6.87;6.27;;;25.60;50.70;;;;;;4967263;29;20271;-75
2023/06/09 07:00:22;;;;;;;9.53;6.60;;;25.60;51.10;;;;;;4949889;29;20520;-76
2023/06/09 07:02:47;;;;;;;6.40;5.80;;;25.40;51.70;;;;;;4950280;29;20562;-78
2023/06/09 07:05:13;;;;;;;7.03;6.37;;;25.40;52.10;;;;;;4949188;29;20189;-74
2023/06/09 07:07:39;;;;;;;5.33;4.83;;;25.50;51.50;;;;;;4931583;29;20184;-76
2023/06/09 07:10:07;;;;;;;6.63;6.00;;;25.50;51.90;;;;;;4929288;29;20449;-76
2023/06/09 07:12:33;;;;;;;7.60;6.90;;;25.50;51.60;;;;;;4943884;29;20484;-74
2023/06/09 07:14:59;;;;;;;7.80;6.83;;;25.60;51.70;;;;;;4946137;29;20417;-75
2023/06/09 07:17:24;;;;;;;6.47;5.90;;;25.50;51.70;;;;;;4946826;29;20257;-75
2023/06/09 07:19:50;;;;;;;8.90;6.23;;;25.30;52.30;;;;;;4948284;29;20213;-76
2023/06/09 07:22:16;;;;;;;8.90;7.97;;;25.20;52.40;;;;;;4957952;29;20213;-75
2023/06/09 07:24:41;;;;;;;7.10;6.40;;;25.00;52.90;;;;;;4971143;29;20584;-79
2023/06/09 07:27:08;;;;;;;7.13;6.53;;;24.70;53.80;;;;;;4961309;29;20169;-77
2023/06/09 07:29:37;;;;;;;7.50;6.90;;;24.70;54.00;;;;;;4952533;29;20225;-74
2023/06/09 07:32:03;;;;;;;5.90;5.40;;;24.70;53.70;;;;;;4960732;29;20449;-77
2023/06/09 07:34:29;;;;;;;6.60;5.80;;;24.70;54.30;;;;;;4949055;29;20428;-78
2023/06/09 07:36:55;;;;;;;6.30;5.80;;;24.60;54.80;;;;;;4950122;29;20431;-77
2023/06/09 07:39:21;;;;;;;6.83;6.13;;;24.40;55.10;;;;;;4967705;28;20448;-77
2023/06/09 07:41:46;;;;;;;6.80;6.20;;;24.20;55.70;;;;;;4964198;29;20196;-77
2023/06/09 07:44:12;;;;;;;7.30;6.50;;;24.00;56.20;;;;;;4929997;29;20194;-78
2023/06/09 07:46:38;;;;;;;7.77;6.50;;;23.80;56.60;;;;;;4959370;29;20173;-78
2023/06/09 07:49:04;;;;;;;6.23;5.60;;;23.70;57.10;;;;;;4957914;28;20308;-76
2023/06/09 07:51:30;;;;;;;7.57;6.90;;;23.60;57.70;;;;;;4945793;29;20422;-77
2023/06/09 07:53:56;;;;;;;15.97;8.10;;;23.60;58.30;;;;;;4946023;29;20221;-77
2023/06/09 07:56:22;;;;;;;7.90;7.20;;;23.50;58.70;;;;;;4946840;29;20468;-76
2023/06/09 07:58:49;;;;;;;7.50;6.80;;;23.50;59.10;;;;;;4947861;29;20214;-76
2023/06/09 08:01:15;;;;;;;7.70;7.07;;;23.50;58.50;;;;;;4946420;29;20422;-77
2023/06/09 08:03:41;;;;;;;6.60;6.00;;;23.40;58.70;;;;;;4948161;29;20579;-77
2023/06/09 08:06:08;;;;;;;8.67;7.87;;;23.40;59.20;;;;;;4951984;29;20426;-79
2023/06/09 08:08:34;;;;;;;15.80;7.90;;;23.40;59.40;;;;;;4965265;29;20246;-77
2023/06/09 08:11:00;;;;;;;7.53;6.83;;;23.40;59.30;;;;;;4955837;29;20461;-77
2023/06/09 08:13:26;;;;;;;8.00;7.20;;;23.40;59.50;;;;;;4942096;29;20499;-80
2023/06/09 08:15:52;;;;;;;8.47;7.67;;;23.50;59.20;;;;;;4933347;29;20182;-78
2023/06/09 08:18:18;;;;;;;8.00;7.20;;;23.50;59.70;;;;;;4948422;29;20405;-76
2023/06/09 08:20:43;;;;;;;7.27;6.67;;;23.50;60.10;;;;;;4949915;29;20212;-75
2023/06/09 08:23:09;;;;;;;7.23;6.63;;;23.60;59.80;;;;;;4967751;29;20187;-77
2023/06/09 08:25:35;;;;;;;9.03;8.23;;;23.70;59.80;;;;;;4966840;29;20627;-75
2023/06/09 08:28:01;;;;;;;11.93;7.33;;;23.70;59.90;;;;;;4934341;29;20212;-76
2023/06/09 08:30:27;;;;;;;7.63;6.93;;;23.70;59.10;;;;;;4952732;29;20445;-76
2023/06/09 08:32:53;;;;;;;9.50;7.27;;;23.70;59.60;;;;;;4912981;29;20292;-76
2023/06/09 08:35:18;;;;;;;8.43;7.63;;;23.80;59.60;;;;;;4964283;29;20193;-78
2023/06/09 08:37:44;;;;;;;7.40;6.70;;;23.90;59.80;;;;;;4947817;29;20476;-77
2023/06/09 08:40:10;;;;;;;8.77;8.07;;;24.00;59.80;;;;;;4948541;29;20488;-77
2023/06/09 08:42:37;;;;;;;7.43;6.67;;;24.00;60.40;;;;;;4949614;29;20197;-77
2023/06/09 08:45:05;;;;;;;8.17;7.50;;;24.10;60.30;;;;;;4961969;29;20418;-78
2023/06/09 08:47:32;;;;;;;7.20;6.43;;;24.10;59.90;;;;;;4946711;29;20452;-76
2023/06/09 08:49:59;;;;;;;7.17;6.57;;;24.10;59.70;;;;;;4940736;29;20455;-77
2023/06/09 08:52:26;;;;;;;10.60;7.70;;;24.10;59.30;;;;;;4935478;29;20471;-78
2023/06/09 08:54:52;;;;;;;7.70;7.10;;;24.20;59.20;;;;;;4933378;29;20429;-76
2023/06/09 08:57:19;;;;;;;8.00;7.40;;;24.20;59.20;;;;;;4950379;29;20413;-76
2023/06/09 08:59:47;;;;;;;7.00;6.40;;;24.30;59.20;;;;;;4965764;29;20447;-78
2023/06/09 09:02:13;;;;;;;8.50;7.20;;;24.30;59.00;;;;;;4950011;29;20440;-77
2023/06/09 09:04:39;;;;;;;6.40;5.80;;;24.40;58.70;;;;;;4952560;29;20724;-78
2023/06/09 09:07:06;;;;;;;8.50;7.53;;;24.40;58.50;;;;;;4937742;29;20516;-77
2023/06/09 09:09:34;;;;;;;8.13;7.43;;;24.50;58.50;;;;;;4951926;29;20440;-78
2023/06/09 09:12:01;;;;;;;10.30;6.73;;;24.60;58.80;;;;;;4967507;29;20528;-77
2023/06/09 09:14:29;;;;;;;7.23;6.70;;;24.70;57.70;;;;;;4952984;29;20856;-74
2023/06/09 09:16:54;;;;;;;7.00;6.40;;;24.90;56.90;;;;;;4955370;29;20424;-74
2023/06/09 09:19:30;;;;;;;7.97;7.37;;;25.10;55.90;;;;;;4954110;29;20213;-77
2023/06/09 09:22:01;;;;;;;7.13;6.43;;;25.20;55.20;;;;;;4971746;29;20173;-77
2023/06/09 09:24:30;;;;;;;7.10;6.40;;;25.20;55.20;;;;;;4970809;29;20524;-78
2023/06/09 09:26:56;;;;;;;8.17;5.97;;;25.20;55.00;;;;;;4954699;29;20507;-77
2023/06/09 09:29:27;;;;;;;6.47;5.87;;;25.30;55.10;;;;;;4968557;29;20448;-77
2023/06/09 09:31:58;;;;;;;6.30;5.70;;;25.30;54.30;;;;;;4956273;29;20416;-76
2023/06/09 09:34:26;;;;;;;6.47;5.90;;;25.40;54.10;;;;;;4937881;29;20413;-76
2023/06/09 09:36:55;;;;;;;6.40;5.90;;;25.40;52.60;;;;;;4938085;29;20429;-78
2023/06/09 09:39:24;;;;;;;6.20;5.60;;;25.40;52.60;;;;;;4952343;29;20535;-77
2023/06/09 09:42:07;;;;;;;6.80;6.10;;;25.50;52.80;;;;;;4951960;29;20493;-77
2023/06/09 09:44:38;;;;;;;6.00;5.50;;;25.50;52.80;;;;;;4951393;29;20454;-79
2023/06/09 09:47:05;;;;;;;6.20;5.60;;;25.60;52.20;;;;;;4955516;29;20452;-79
2023/06/09 09:49:31;;;;;;;6.47;5.77;;;25.60;50.70;;;;;;4970942;29;20943;-78
2023/06/09 09:51:58;;;;;;;6.17;5.67;;;25.60;50.90;;;;;;4942679;29;20429;-78
2023/06/09 09:54:26;;;;;;;6.13;5.53;;;25.60;51.10;;;;;;4969927;29;20181;-79
2023/06/09 09:56:55;;;;;;;5.10;4.60;;;25.60;50.60;;;;;;4941012;29;20419;-79
2023/06/09 09:59:22;;;;;;;6.10;5.50;;;25.60;49.70;;;;;;4957690;29;20452;-79
2023/06/09 10:01:50;;;;;;;8.20;5.93;;;25.70;48.50;;;;;;4955393;29;20425;-79
2023/06/09 10:04:17;;;;;;;8.50;5.10;;;25.80;48.50;;;;;;4969769;29;20434;-79
2023/06/09 10:06:43;;;;;;;4.90;4.50;;;25.80;47.90;;;;;;4938969;29;20413;-76
2023/06/09 10:09:09;;;;;;;5.23;4.73;;;25.90;48.10;;;;;;4955004;29;20531;-78
2023/06/09 10:11:37;;;;;;;6.13;5.30;;;25.80;48.70;;;;;;4940613;29;20469;-80
2023/06/09 10:14:03;;;;;;;8.00;4.97;;;25.90;48.40;;;;;;4959964;29;20498;-79
2023/06/09 10:16:30;;;;;;;4.90;4.50;;;26.00;47.90;;;;;;4954998;29;20416;-79
2023/06/09 10:18:57;;;;;;;5.77;5.17;;;26.00;47.80;;;;;;4960687;29;21003;-79
2023/06/09 10:21:25;;;;;;;5.37;4.87;;;26.10;47.80;;;;;;4941852;29;20408;-77
2023/06/09 10:23:52;;;;;;;4.80;4.40;;;26.10;47.70;;;;;;4956379;29;20505;-77
2023/06/09 10:26:18;;;;;;;6.30;5.00;;;26.10;47.50;;;;;;4954978;29;20425;-79
2023/06/09 10:28:44;;;;;;;5.57;5.07;;;26.20;47.50;;;;;;4953452;29;20773;-79
2023/06/09 10:31:12;;;;;;;6.43;5.83;;;26.30;47.60;;;;;;4937610;29;20181;-78
2023/06/09 10:33:44;;;;;;;7.17;5.93;;;26.30;47.50;;;;;;4973407;29;20212;-79
2023/06/09 10:36:10;;;;;;;6.57;4.97;;;26.30;46.70;;;;;;4955854;29;20492;-79
2023/06/09 10:38:45;;;;;;;6.00;5.20;;;26.40;47.00;;;;;;4955033;29;20413;-78
2023/06/09 10:41:43;;;;;;;6.13;4.90;;;26.40;46.50;;;;;;4970678;29;20169;-77
2023/06/09 10:44:44;;;;;;;6.30;5.70;;;26.40;46.40;;;;;;4957596;29;20496;-77
2023/06/09 10:47:10;;;;;;;11.10;5.43;;;26.50;47.20;;;;;;4935796;29;20411;-77
2023/06/09 10:49:40;;;;;;;6.63;5.70;;;26.50;47.10;;;;;;4939795;29;20479;-78
2023/06/09 10:52:35;;;;;;;5.50;5.00;;;26.60;46.50;;;;;;4938129;29;20174;-77
2023/06/09 10:55:15;;;;;;;5.87;5.37;;;26.70;46.30;;;;;;4961661;29;20507;-79
2023/06/09 10:57:42;;;;;;;6.10;5.50;;;26.70;46.60;;;;;;4957205;29;20412;-79
2023/06/09 11:00:11;;;;;;;5.00;4.50;;;26.60;46.70;;;;;;4955278;29;20435;-78
2023/06/09 11:02:39;;;;;;;6.27;5.70;;;26.70;46.10;;;;;;4957098;29;20444;-78
2023/06/09 11:05:04;;;;;;;7.13;6.27;;;26.80;45.80;;;;;;4938059;29;20493;-77
2023/06/09 11:07:38;;;;;;;6.33;5.57;;;26.90;46.00;;;;;;4951737;29;20418;-78
2023/06/09 11:10:06;;;;;;;5.13;4.60;;;27.00;45.60;;;;;;4942081;29;20643;-76
2023/06/09 11:12:46;;;;;;;6.33;5.73;;;27.00;45.10;;;;;;4971430;29;20476;-77
2023/06/09 11:15:15;;;;;;;5.13;4.63;;;27.00;44.90;;;;;;4973173;29;20421;-79
2023/06/09 11:17:52;;;;;;;5.23;4.60;;;27.00;45.20;;;;;;4956610;29;20417;-78
2023/06/09 11:20:23;;;;;;;7.13;4.80;;;27.10;44.80;;;;;;4963440;29;20779;-78
2023/06/09 11:22:48;;;;;;;5.47;4.97;;;27.30;44.80;;;;;;4925843;29;20439;-79
2023/06/09 11:25:17;;;;;;;6.00;5.43;;;27.30;44.10;;;;;;4957344;29;20436;-79
2023/06/09 11:27:48;;;;;;;4.93;4.53;;;27.40;44.40;;;;;;4955303;29;20224;-80
2023/06/09 11:30:19;;;;;;;4.63;4.23;;;27.40;44.40;;;;;;4955064;29;20456;-78
2023/06/09 11:32:54;;;;;;;4.90;4.27;;;27.50;44.10;;;;;;4954862;29;20455;-76
2023/06/09 11:35:46;;;;;;;6.13;5.53;;;27.50;43.70;;;;;;4970932;29;20511;-80
2023/06/09 11:38:19;;;;;;;6.80;4.87;;;27.60;43.70;;;;;;4862960;29;20412;-80
2023/06/09 11:40:52;;;;;;;6.17;5.00;;;27.70;42.90;;;;;;4877120;29;20453;-78
2023/06/09 11:43:19;;;;;;;4.73;4.33;;;27.70;42.80;;;;;;4881138;29;20425;-80
2023/06/09 11:45:46;;;;;;;5.67;5.10;;;27.70;43.10;;;;;;4880475;29;20543;-80
2023/06/09 11:48:12;;;;;;;5.27;4.23;;;27.70;42.30;;;;;;4881590;29;20408;-79
2023/06/09 11:50:45;;;;;;;5.67;4.60;;;27.80;41.50;;;;;;4879287;29;20451;-79
2023/06/09 11:53:13;;;;;;;4.20;3.83;;;27.80;41.60;;;;;;4880579;29;20207;-79
2023/06/09 11:55:39;;;;;;;7.70;5.10;;;27.80;41.70;;;;;;4878892;29;20504;-79
2023/06/09 11:58:08;;;;;;;4.57;4.17;;;27.80;41.90;;;;;;4881743;29;20884;-79
2023/06/09 12:00:40;;;;;;;5.40;4.90;;;27.90;41.00;;;;;;4895526;29;20212;-78
2023/06/09 12:03:07;;;;;;;7.50;4.57;;;27.90;41.30;;;;;;4894127;29;20524;-79
2023/06/09 12:05:33;;;;;;;5.23;4.73;;;27.90;41.10;;;;;;4860500;29;20422;-78
2023/06/09 12:08:00;;;;;;;5.43;4.23;;;27.90;40.60;;;;;;4860011;29;20437;-78
2023/06/09 12:10:27;;;;;;;5.57;4.93;;;27.90;40.50;;;;;;4878783;29;20454;-79
2023/06/09 12:13:00;;;;;;;5.70;4.53;;;28.00;40.30;;;;;;4880337;29;20471;-79
2023/06/09 12:15:27;;;;;;;6.83;4.70;;;27.90;40.50;;;;;;4905315;29;20498;-79
2023/06/09 12:17:57;;;;;;;5.40;4.43;;;27.90;40.20;;;;;;4931724;29;20415;-77
2023/06/09 12:20:35;;;;;;;4.20;3.80;;;28.00;39.20;;;;;;4918820;29;20465;-79
2023/06/09 12:23:13;;;;;;;5.03;4.63;;;28.00;39.60;;;;;;4933977;29;20412;-77
2023/06/09 12:25:41;;;;;;;4.80;4.40;;;28.20;39.40;;;;;;4919209;29;20561;-79
2023/06/09 12:28:26;;;;;;;5.30;4.90;;;28.30;39.00;;;;;;4916171;29;20414;-80
2023/06/09 12:30:53;;;;;;;6.37;5.47;;;28.40;38.50;;;;;;4916599;29;20435;-78
2023/06/09 12:33:21;;;;;;;5.43;4.43;;;28.60;37.50;;;;;;4917939;29;20456;-79
2023/06/09 12:35:51;;;;;;;7.33;4.37;;;28.70;37.50;;;;;;4920092;29;20403;-79
2023/06/09 12:38:21;;;;;;;5.23;4.83;;;28.60;37.10;;;;;;4898866;29;20492;-76
2023/06/09 12:40:51;;;;;;;5.27;4.87;;;28.60;37.00;;;;;;4931810;29;20823;-80
2023/06/09 12:43:22;;;;;;;5.70;4.63;;;28.60;37.00;;;;;;4916968;29;20433;-78
2023/06/09 12:45:48;;;;;;;5.47;4.97;;;28.60;37.00;;;;;;4930065;29;20434;-79
2023/06/09 12:48:15;;;;;;;5.70;5.20;;;28.60;37.40;;;;;;4947710;29;20826;-77
2023/06/09 12:50:41;;;;;;;5.50;5.00;;;28.70;37.20;;;;;;4918558;29;20447;-78